WARNING - Change wsUserSettings.php: $SITE["topfolder"] from : weather28m/ to: ./
Welkom op onze vernieuwde website -
Komt u straks nog eens terug


Webcam zuid Meer informatie Webcam zuid


Onweer radar Meer informatie blitzortung!


waarschuwing voor winterse neerslag Meer informatie rain snow radar


Bezoek onze andere website:

Template documentation
and downloads

And another site


U vindt ons ook hier:

Het Weer Aktueel

UK Metoffice

European Weather Network

WeatherCloud

Weather Underground

Austria Weather Network

AWEKAS

Citizen Weather Observer Program (CWOP)

HAMweather, WeatherForYou, PWS Weather

Wetterpage 24

Roosendaal op internet

VWKWEB

RadioZuidWestFM



Sneeuw/IJzel/Bevriezing van: 14-12-2018 09:00 tot: 11:00 waarschuwing voor: Sneeuw/IJzel/Bevriezing niveau: Geel info button
Lokaal kans op gladheid door bevriezing van natte weggedeelten.Kans op gladheid.Alle verkeersdeelnemers kunnen hinder ondervinden.Pas uw rijgedrag aan.Volg weerberichten en waarschuwingen.

METAR rapporten vliegvelden

   
EHWO - Bergen op Zoom
Gewijzigd: 14-12-2018 09:55
Nevel, Grotendeels bewolkt  
Nevel, Grotendeels bewolkt  
   Wind: ONO 7.4 km/h
Wind: ONO 7.4 km/h
Temperatuur: -2°C
Voelt als: -5°C
Dauwpunt: -2°C
Vochtigheid: 100%
Barometer: 1023 hPa
Bewolking: Grotendeels bewolkt
Zicht: 3 km
Bewolking: Licht bewolkt 300 ft,
Gedeeltelijk bewolkt 500 ft,
Grotendeels bewolkt 800 ft
EHWO 140855Z AUTO 07004KT 010V090 3300 R07/P3000U BR FEW003 SCT005 BKN008 M02/M02 Q1023 YLO 06004KT 3500 BR FEW005 SCT035 BECMG 5000
EHWO - Woensdrecht
Gewijzigd: 14-12-2018 09:55
Nevel, Grotendeels bewolkt  
Nevel, Grotendeels bewolkt  
   Wind: ONO 7.4 km/h
Wind: ONO 7.4 km/h
Temperatuur: -2°C
Voelt als: -5°C
Dauwpunt: -2°C
Vochtigheid: 100%
Barometer: 1023 hPa
Bewolking: Grotendeels bewolkt
Zicht: 3 km
Bewolking: Licht bewolkt 300 ft,
Gedeeltelijk bewolkt 500 ft,
Grotendeels bewolkt 800 ft
EHWO 140855Z AUTO 07004KT 010V090 3300 R07/P3000U BR FEW003 SCT005 BKN008 M02/M02 Q1023 YLO 06004KT 3500 BR FEW005 SCT035 BECMG 5000
EHWO - Steenbergen
Gewijzigd: 14-12-2018 09:55
Nevel, Grotendeels bewolkt  
Nevel, Grotendeels bewolkt  
   Wind: ONO 7.4 km/h
Wind: ONO 7.4 km/h
Temperatuur: -2°C
Voelt als: -5°C
Dauwpunt: -2°C
Vochtigheid: 100%
Barometer: 1023 hPa
Bewolking: Grotendeels bewolkt
Zicht: 3 km
Bewolking: Licht bewolkt 300 ft,
Gedeeltelijk bewolkt 500 ft,
Grotendeels bewolkt 800 ft
EHWO 140855Z AUTO 07004KT 010V090 3300 R07/P3000U BR FEW003 SCT005 BKN008 M02/M02 Q1023 YLO 06004KT 3500 BR FEW005 SCT035 BECMG 5000
EHWO - Oud-Gastel
Gewijzigd: 14-12-2018 09:55
Nevel, Grotendeels bewolkt  
Nevel, Grotendeels bewolkt  
   Wind: ONO 7.4 km/h
Wind: ONO 7.4 km/h
Temperatuur: -2°C
Voelt als: -5°C
Dauwpunt: -2°C
Vochtigheid: 100%
Barometer: 1023 hPa
Bewolking: Grotendeels bewolkt
Zicht: 3 km
Bewolking: Licht bewolkt 300 ft,
Gedeeltelijk bewolkt 500 ft,
Grotendeels bewolkt 800 ft
EHWO 140855Z AUTO 07004KT 010V090 3300 R07/P3000U BR FEW003 SCT005 BKN008 M02/M02 Q1023 YLO 06004KT 3500 BR FEW005 SCT035 BECMG 5000
EHWO - Oudenbosch
Gewijzigd: 14-12-2018 09:55
Nevel, Grotendeels bewolkt  
Nevel, Grotendeels bewolkt  
   Wind: ONO 7.4 km/h
Wind: ONO 7.4 km/h
Temperatuur: -2°C
Voelt als: -5°C
Dauwpunt: -2°C
Vochtigheid: 100%
Barometer: 1023 hPa
Bewolking: Grotendeels bewolkt
Zicht: 3 km
Bewolking: Licht bewolkt 300 ft,
Gedeeltelijk bewolkt 500 ft,
Grotendeels bewolkt 800 ft
EHWO 140855Z AUTO 07004KT 010V090 3300 R07/P3000U BR FEW003 SCT005 BKN008 M02/M02 Q1023 YLO 06004KT 3500 BR FEW005 SCT035 BECMG 5000
EHWO - Rucphen
Gewijzigd: 14-12-2018 09:55
Nevel, Grotendeels bewolkt  
Nevel, Grotendeels bewolkt  
   Wind: ONO 7.4 km/h
Wind: ONO 7.4 km/h
Temperatuur: -2°C
Voelt als: -5°C
Dauwpunt: -2°C
Vochtigheid: 100%
Barometer: 1023 hPa
Bewolking: Grotendeels bewolkt
Zicht: 3 km
Bewolking: Licht bewolkt 300 ft,
Gedeeltelijk bewolkt 500 ft,
Grotendeels bewolkt 800 ft
EHWO 140855Z AUTO 07004KT 010V090 3300 R07/P3000U BR FEW003 SCT005 BKN008 M02/M02 Q1023 YLO 06004KT 3500 BR FEW005 SCT035 BECMG 5000
EHWO - Bergen op Zoom
Gewijzigd: 14-12-2018 09:55
Nevel, Grotendeels bewolkt  
Nevel, Grotendeels bewolkt  
   Wind: ONO 7.4 km/h
Wind: ONO 7.4 km/h
Temperatuur: -2°C
Voelt als: -5°C
Dauwpunt: -2°C
Vochtigheid: 100%
Barometer: 1023 hPa
Bewolking: Grotendeels bewolkt
Zicht: 3 km
Bewolking: Licht bewolkt 300 ft,
Gedeeltelijk bewolkt 500 ft,
Grotendeels bewolkt 800 ft
EHWO 140855Z AUTO 07004KT 010V090 3300 R07/P3000U BR FEW003 SCT005 BKN008 M02/M02 Q1023 YLO 06004KT 3500 BR FEW005 SCT035 BECMG 5000
EHWO - Fijnaart
Gewijzigd: 14-12-2018 09:55
Nevel, Grotendeels bewolkt  
Nevel, Grotendeels bewolkt  
   Wind: ONO 7.4 km/h
Wind: ONO 7.4 km/h
Temperatuur: -2°C
Voelt als: -5°C
Dauwpunt: -2°C
Vochtigheid: 100%
Barometer: 1023 hPa
Bewolking: Grotendeels bewolkt
Zicht: 3 km
Bewolking: Licht bewolkt 300 ft,
Gedeeltelijk bewolkt 500 ft,
Grotendeels bewolkt 800 ft
EHWO 140855Z AUTO 07004KT 010V090 3300 R07/P3000U BR FEW003 SCT005 BKN008 M02/M02 Q1023 YLO 06004KT 3500 BR FEW005 SCT035 BECMG 5000
EHWO - Ossendrecht
Gewijzigd: 14-12-2018 09:55
Nevel, Grotendeels bewolkt  
Nevel, Grotendeels bewolkt  
   Wind: ONO 7.4 km/h
Wind: ONO 7.4 km/h
Temperatuur: -2°C
Voelt als: -5°C
Dauwpunt: -2°C
Vochtigheid: 100%
Barometer: 1023 hPa
Bewolking: Grotendeels bewolkt
Zicht: 3 km
Bewolking: Licht bewolkt 300 ft,
Gedeeltelijk bewolkt 500 ft,
Grotendeels bewolkt 800 ft
EHWO 140855Z AUTO 07004KT 010V090 3300 R07/P3000U BR FEW003 SCT005 BKN008 M02/M02 Q1023 YLO 06004KT 3500 BR FEW005 SCT035 BECMG 5000

Script ontwikkeld door  Saratoga-weather.org Aangepast voor de template door  Weerstation Leuven

Apparatuur in gebruik:

Weerstation
Davis VP2

Weerprogramma
Meteobridge

Weercomputer
Shuttle

Webleverancier
WeservIT

Davis VP2

Meteobridge

Shuttle

WeservIT